Time;durP1;ratioP1;P1;durP2;ratioP2;P2;SDS_P1;SDS_P2;PMS_P1;PMS_P2;Temp;Humidity;BMP_temperature;BMP_pressure;BME280_temperature;BME280_humidity;BME280_pressure;Samples;Min_cycle;Max_cycle;Signal;HPM_P1;HPM_P2
2023/04/25 00:01:21;;;;;;;8.20;5.90;;;7.10;99.90;;;;;;5075863;28;20652;-74
2023/04/25 00:03:48;;;;;;;6.30;5.70;;;7.10;99.90;;;;;;5075799;28;20204;-74
2023/04/25 00:06:15;;;;;;;7.20;5.57;;;7.10;99.90;;;;;;5076046;28;20243;-74
2023/04/25 00:08:41;;;;;;;7.03;5.77;;;7.10;99.90;;;;;;5075772;28;20388;-74
2023/04/25 00:11:09;;;;;;;7.20;6.20;;;7.10;99.90;;;;;;5075894;28;20204;-73
2023/04/25 00:13:36;;;;;;;7.57;6.10;;;7.20;99.90;;;;;;5075696;28;20196;-74
2023/04/25 00:16:04;;;;;;;6.43;5.83;;;7.20;99.90;;;;;;5075805;28;20199;-74
2023/04/25 00:18:33;;;;;;;7.20;6.10;;;7.20;99.90;;;;;;5075564;28;20288;-74
2023/04/25 00:20:59;;;;;;;8.40;6.57;;;7.10;99.90;;;;;;5075597;28;20627;-73
2023/04/25 00:23:26;;;;;;;9.20;6.27;;;7.10;99.90;;;;;;5075747;28;20288;-74
2023/04/25 00:25:53;;;;;;;7.33;5.63;;;7.10;99.90;;;;;;5075581;28;20250;-74
2023/04/25 00:28:21;;;;;;;7.63;6.73;;;7.10;99.90;;;;;;5075300;28;20708;-74
2023/04/25 00:30:47;;;;;;;8.17;7.17;;;7.00;99.90;;;;;;5075383;28;20227;-74
2023/04/25 00:33:14;;;;;;;7.50;6.70;;;7.10;99.90;;;;;;5075225;28;20264;-74
2023/04/25 00:35:40;;;;;;;7.73;6.67;;;7.10;99.90;;;;;;5075086;28;20274;-74
2023/04/25 00:38:07;;;;;;;7.63;6.60;;;7.00;99.90;;;;;;5075451;28;20255;-74
2023/04/25 00:40:34;;;;;;;7.53;6.80;;;7.00;99.90;;;;;;5075388;28;20266;-74
2023/04/25 00:43:00;;;;;;;7.33;6.30;;;7.00;99.90;;;;;;5075227;28;20262;-74
2023/04/25 00:45:30;;;;;;;7.33;6.20;;;7.00;99.90;;;;;;5075100;28;20254;-74
2023/04/25 00:47:57;;;;;;;7.03;6.33;;;6.90;99.90;;;;;;5075281;28;20232;-74
2023/04/25 00:50:24;;;;;;;8.37;6.60;;;6.90;99.90;;;;;;5074945;28;20726;-74
2023/04/25 00:52:51;;;;;;;7.93;5.90;;;7.00;99.90;;;;;;5074947;28;20695;-74
2023/04/25 00:55:18;;;;;;;7.23;6.50;;;7.00;99.90;;;;;;5075126;28;20199;-74
2023/04/25 00:57:44;;;;;;;6.83;6.13;;;7.10;99.90;;;;;;5074809;28;20254;-74
2023/04/25 01:00:13;;;;;;;10.37;6.70;;;7.10;99.90;;;;;;5074913;28;20200;-74
2023/04/25 01:02:41;;;;;;;7.83;6.77;;;7.10;99.90;;;;;;5074949;28;20197;-74
2023/04/25 01:05:09;;;;;;;7.53;6.07;;;7.10;99.90;;;;;;5074175;28;20207;-74
2023/04/25 01:07:36;;;;;;;8.00;6.80;;;7.10;99.90;;;;;;5074629;28;20193;-74
2023/04/25 01:10:03;;;;;;;7.67;6.87;;;7.00;99.90;;;;;;5074355;28;20252;-74
2023/04/25 01:12:30;;;;;;;7.53;6.63;;;7.10;99.90;;;;;;5074472;28;20196;-74
2023/04/25 01:14:57;;;;;;;7.77;6.97;;;7.00;99.90;;;;;;5074685;28;20197;-74
2023/04/25 01:17:24;;;;;;;7.77;6.97;;;7.00;99.90;;;;;;5074375;28;20205;-74
2023/04/25 01:19:52;;;;;;;9.07;7.07;;;7.00;99.90;;;;;;5074581;28;20710;-74
2023/04/25 01:22:20;;;;;;;8.83;7.87;;;7.00;99.90;;;;;;5074662;28;20201;-74
2023/04/25 01:24:47;;;;;;;8.97;7.97;;;7.00;99.90;;;;;;5074344;28;20199;-74
2023/04/25 01:27:15;;;;;;;10.80;8.40;;;7.00;99.90;;;;;;5074122;28;20733;-73
2023/04/25 01:29:42;;;;;;;8.70;7.57;;;7.00;99.90;;;;;;5074024;28;20692;-74
2023/04/25 01:32:09;;;;;;;8.50;7.60;;;7.00;99.90;;;;;;5074278;28;20204;-74
2023/04/25 01:34:35;;;;;;;9.70;7.47;;;7.00;99.90;;;;;;5074080;28;20233;-74
2023/04/25 01:37:02;;;;;;;11.67;8.27;;;6.90;99.90;;;;;;5074177;28;20205;-73
2023/04/25 01:39:30;;;;;;;10.83;7.90;;;6.90;99.90;;;;;;5074057;28;20205;-74
2023/04/25 01:41:57;;;;;;;9.80;8.53;;;6.90;99.90;;;;;;5073912;28;20231;-74
2023/04/25 01:44:25;;;;;;;9.47;7.63;;;6.90;99.90;;;;;;5073992;28;20206;-74
2023/04/25 01:46:52;;;;;;;9.57;8.53;;;6.90;99.90;;;;;;5074025;28;20197;-74
2023/04/25 01:49:18;;;;;;;10.17;8.73;;;6.90;99.90;;;;;;5073979;28;20346;-74
2023/04/25 01:51:45;;;;;;;13.40;8.13;;;6.90;99.90;;;;;;5073791;28;20239;-74
2023/04/25 01:54:12;;;;;;;10.83;9.03;;;6.90;99.90;;;;;;5073914;28;20197;-74
2023/04/25 01:56:41;;;;;;;10.17;8.60;;;6.90;99.90;;;;;;5073643;28;20256;-74
2023/04/25 01:59:07;;;;;;;10.33;8.27;;;6.90;99.90;;;;;;5073889;28;20238;-74
2023/04/25 02:01:35;;;;;;;10.43;8.43;;;7.00;99.90;;;;;;5074034;28;20197;-74
2023/04/25 02:04:01;;;;;;;11.13;9.20;;;6.90;99.90;;;;;;5073717;28;20238;-74
2023/04/25 02:06:28;;;;;;;9.93;8.93;;;6.90;99.90;;;;;;5073549;28;20201;-74
2023/04/25 02:08:54;;;;;;;11.00;8.23;;;6.90;99.90;;;;;;5073256;28;20278;-74
2023/04/25 02:11:21;;;;;;;10.77;8.73;;;6.90;99.90;;;;;;5073582;28;20205;-74
2023/04/25 02:13:49;;;;;;;9.60;8.37;;;6.90;99.90;;;;;;5073520;28;20193;-73
2023/04/25 02:16:16;;;;;;;10.47;9.20;;;6.90;99.90;;;;;;5072595;28;20198;-73
2023/04/25 02:18:42;;;;;;;9.77;8.40;;;6.80;99.90;;;;;;5073439;28;20197;-74
2023/04/25 02:21:09;;;;;;;13.30;9.23;;;6.80;99.90;;;;;;5073316;28;20195;-73
2023/04/25 02:23:36;;;;;;;10.17;9.07;;;6.80;99.90;;;;;;5074614;28;20193;-74
2023/04/25 02:26:02;;;;;;;12.30;9.10;;;6.80;99.90;;;;;;5073435;28;20208;-73
2023/04/25 02:28:29;;;;;;;9.83;8.73;;;6.80;99.90;;;;;;5073233;28;20274;-73
2023/04/25 02:30:57;;;;;;;10.50;9.40;;;6.80;99.90;;;;;;5073053;28;20744;-73
2023/04/25 02:33:23;;;;;;;10.57;8.87;;;6.80;99.90;;;;;;5073187;28;20197;-73
2023/04/25 02:35:50;;;;;;;11.33;10.03;;;6.70;99.90;;;;;;5073037;28;20234;-73
2023/04/25 02:38:17;;;;;;;11.87;9.50;;;6.70;99.90;;;;;;5073198;28;20253;-73
2023/04/25 02:40:43;;;;;;;12.30;9.93;;;6.70;99.90;;;;;;5073205;28;20237;-73
2023/04/25 02:43:10;;;;;;;12.00;10.67;;;6.80;99.90;;;;;;5073145;28;20197;-73
2023/04/25 02:45:37;;;;;;;11.73;10.30;;;6.70;99.90;;;;;;5073013;28;20197;-73
2023/04/25 02:48:06;;;;;;;12.20;9.97;;;6.60;99.90;;;;;;5072880;28;20201;-74
2023/04/25 02:50:32;;;;;;;13.90;10.80;;;6.60;99.90;;;;;;5072841;28;20786;-74
2023/04/25 02:52:59;;;;;;;12.57;10.27;;;6.60;99.90;;;;;;5073073;28;20193;-73
2023/04/25 02:55:25;;;;;;;11.37;10.17;;;6.60;99.90;;;;;;5072976;28;20556;-74
2023/04/25 02:57:52;;;;;;;12.93;9.77;;;6.50;99.90;;;;;;5072942;28;20193;-73
2023/04/25 03:00:19;;;;;;;11.13;9.70;;;6.50;99.90;;;;;;5072845;28;20210;-73
2023/04/25 03:02:45;;;;;;;11.20;10.00;;;6.40;99.90;;;;;;5072825;28;20193;-74
2023/04/25 03:05:13;;;;;;;14.20;9.33;;;6.40;99.90;;;;;;5072642;28;20231;-73
2023/04/25 03:07:40;;;;;;;10.67;9.07;;;6.40;99.90;;;;;;5072868;28;20197;-73
2023/04/25 03:10:08;;;;;;;11.53;9.70;;;6.40;99.90;;;;;;5072777;28;20271;-74
2023/04/25 03:12:34;;;;;;;11.27;9.40;;;6.50;99.90;;;;;;5072835;28;20738;-74
2023/04/25 03:15:01;;;;;;;10.33;9.07;;;6.50;99.90;;;;;;5072691;28;20244;-73
2023/04/25 03:17:28;;;;;;;10.10;9.00;;;6.50;99.90;;;;;;5072738;28;20197;-73
2023/04/25 03:19:56;;;;;;;11.00;9.07;;;6.50;99.90;;;;;;5072716;28;20204;-73
2023/04/25 03:22:24;;;;;;;10.50;9.13;;;6.50;99.90;;;;;;5072701;28;20197;-74
2023/04/25 03:24:51;;;;;;;17.87;9.67;;;6.50;99.90;;;;;;5072484;28;20584;-73
2023/04/25 03:27:18;;;;;;;10.47;8.70;;;6.50;99.90;;;;;;5072661;28;20564;-73
2023/04/25 03:29:44;;;;;;;10.07;8.87;;;6.50;99.90;;;;;;5076450;28;20236;-74
2023/04/25 03:32:11;;;;;;;10.43;9.33;;;6.50;99.90;;;;;;5076389;28;20197;-73
2023/04/25 03:34:37;;;;;;;11.80;9.50;;;6.50;99.90;;;;;;5076162;28;20775;-73
2023/04/25 03:37:04;;;;;;;10.50;9.40;;;6.50;99.90;;;;;;5076571;28;20205;-74
2023/04/25 03:39:32;;;;;;;10.37;8.97;;;6.50;99.90;;;;;;5076498;28;20606;-73
2023/04/25 03:41:59;;;;;;;12.83;9.77;;;6.50;99.90;;;;;;5076250;28;20235;-73
2023/04/25 03:44:25;;;;;;;11.13;9.77;;;6.50;99.90;;;;;;5076285;28;20205;-73
2023/04/25 03:46:52;;;;;;;9.80;8.77;;;6.50;99.90;;;;;;5076125;28;20201;-73
2023/04/25 03:49:18;;;;;;;10.73;9.60;;;6.50;99.90;;;;;;5076237;28;20228;-74
2023/04/25 03:51:45;;;;;;;13.53;9.93;;;6.50;99.90;;;;;;5076045;28;20725;-73
2023/04/25 03:54:12;;;;;;;10.77;9.30;;;6.50;99.90;;;;;;5076228;28;20258;-74
2023/04/25 03:56:39;;;;;;;11.20;9.17;;;6.50;99.90;;;;;;5075892;28;20656;-73
2023/04/25 03:59:07;;;;;;;11.70;9.50;;;6.50;99.90;;;;;;5075864;28;20193;-73
2023/04/25 04:01:33;;;;;;;11.70;9.60;;;6.50;99.90;;;;;;5075995;28;20197;-73
2023/04/25 04:04:00;;;;;;;10.53;8.87;;;6.50;99.90;;;;;;5076016;28;20201;-73
2023/04/25 04:06:27;;;;;;;9.83;8.77;;;6.50;99.90;;;;;;5075824;28;20193;-73
2023/04/25 04:08:53;;;;;;;11.00;9.27;;;6.50;99.90;;;;;;5075757;28;20221;-74
2023/04/25 04:11:21;;;;;;;10.53;8.83;;;6.50;99.90;;;;;;5075672;28;20231;-74
2023/04/25 04:13:49;;;;;;;10.47;9.00;;;6.50;99.90;;;;;;5076004;28;20659;-74
2023/04/25 04:16:15;;;;;;;9.30;8.30;;;6.50;99.90;;;;;;5075747;28;20255;-73
2023/04/25 04:18:42;;;;;;;11.53;9.43;;;6.40;99.90;;;;;;5075624;28;20200;-74
2023/04/25 04:21:09;;;;;;;11.27;9.17;;;6.40;99.90;;;;;;5075597;28;20599;-74
2023/04/25 04:23:35;;;;;;;10.40;8.97;;;6.30;99.90;;;;;;5075459;28;20548;-74
2023/04/25 04:26:02;;;;;;;10.20;8.60;;;6.40;99.90;;;;;;5075506;28;20254;-74
2023/04/25 04:28:29;;;;;;;9.93;8.47;;;6.40;99.90;;;;;;5075306;28;20193;-73
2023/04/25 04:30:57;;;;;;;10.37;9.00;;;6.40;99.90;;;;;;5075288;28;20599;-73
2023/04/25 04:33:24;;;;;;;11.60;9.47;;;6.50;99.90;;;;;;5075554;28;20248;-73
2023/04/25 04:35:52;;;;;;;10.27;8.67;;;6.50;99.90;;;;;;5075116;28;20281;-74
2023/04/25 04:38:19;;;;;;;12.03;9.20;;;6.40;99.90;;;;;;5075256;28;20333;-73
2023/04/25 04:40:47;;;;;;;10.80;9.20;;;6.50;99.90;;;;;;5074311;28;20201;-74
2023/04/25 04:43:16;;;;;;;10.27;9.17;;;6.50;99.90;;;;;;5075343;28;20201;-73
2023/04/25 04:45:44;;;;;;;10.27;8.90;;;6.50;99.90;;;;;;5075012;28;20648;-73
2023/04/25 04:48:13;;;;;;;12.87;8.93;;;6.50;99.90;;;;;;5075153;28;20228;-74
2023/04/25 04:50:40;;;;;;;10.93;9.47;;;6.50;99.90;;;;;;5074936;28;20233;-72
2023/04/25 04:53:08;;;;;;;10.13;9.00;;;6.40;99.90;;;;;;5074992;28;20204;-73
2023/04/25 04:55:34;;;;;;;13.60;9.63;;;6.40;99.90;;;;;;5074844;28;20200;-73
2023/04/25 04:58:01;;;;;;;12.47;9.67;;;6.40;99.90;;;;;;5074791;28;20205;-73
2023/04/25 05:00:29;;;;;;;10.77;9.07;;;6.40;99.90;;;;;;5074871;28;20196;-74
2023/04/25 05:02:55;;;;;;;10.33;9.00;;;6.40;99.90;;;;;;5074914;28;20266;-74
2023/04/25 05:05:23;;;;;;;12.70;10.10;;;6.50;99.90;;;;;;5074700;28;20196;-74
2023/04/25 05:07:50;;;;;;;11.57;9.43;;;6.50;99.90;;;;;;5074640;28;20198;-74
2023/04/25 05:10:18;;;;;;;10.73;9.37;;;6.60;99.90;;;;;;5074407;28;20554;-74
2023/04/25 05:12:45;;;;;;;11.40;9.70;;;6.60;99.90;;;;;;5074540;28;20240;-73
2023/04/25 05:15:11;;;;;;;11.70;9.60;;;6.60;99.90;;;;;;5074698;28;20201;-73
2023/04/25 05:17:38;;;;;;;11.27;9.13;;;6.60;99.90;;;;;;5074464;28;20208;-73
2023/04/25 05:20:06;;;;;;;11.20;9.10;;;6.70;99.90;;;;;;5074502;28;20204;-73
2023/04/25 05:22:34;;;;;;;12.07;9.53;;;6.60;99.90;;;;;;5074200;28;20748;-73
2023/04/25 05:25:01;;;;;;;10.63;8.97;;;6.70;99.90;;;;;;5074119;28;20197;-73
2023/04/25 05:27:27;;;;;;;10.97;9.57;;;6.70;99.90;;;;;;5074384;28;20250;-73
2023/04/25 05:29:54;;;;;;;10.90;9.47;;;6.80;99.90;;;;;;5074163;28;20220;-74
2023/04/25 05:32:21;;;;;;;10.87;9.40;;;6.80;99.90;;;;;;5074042;28;20193;-74
2023/04/25 05:34:47;;;;;;;11.80;9.30;;;6.90;99.90;;;;;;5073871;28;20366;-74
2023/04/25 05:37:14;;;;;;;9.57;8.57;;;6.90;99.90;;;;;;5074003;28;20276;-73
2023/04/25 05:39:42;;;;;;;10.83;9.23;;;7.00;99.90;;;;;;5074093;28;20205;-73
2023/04/25 05:42:08;;;;;;;10.07;8.87;;;7.00;99.90;;;;;;5073991;28;20272;-74
2023/04/25 05:44:35;;;;;;;10.30;8.73;;;6.90;99.90;;;;;;5073903;28;20205;-74
2023/04/25 05:47:04;;;;;;;11.77;8.87;;;6.90;99.90;;;;;;5073867;28;20204;-74
2023/04/25 05:49:30;;;;;;;10.10;8.83;;;6.90;99.90;;;;;;5073487;28;20225;-75
2023/04/25 05:51:57;;;;;;;10.63;8.73;;;6.90;99.90;;;;;;5073387;28;20612;-74
2023/04/25 05:54:24;;;;;;;10.87;8.13;;;6.80;99.90;;;;;;5073748;28;20204;-75
2023/04/25 05:56:52;;;;;;;9.33;8.17;;;6.80;99.90;;;;;;5077715;28;20201;-75
2023/04/25 05:59:18;;;;;;;10.07;8.80;;;6.90;99.90;;;;;;5073751;28;20231;-74
2023/04/25 06:01:45;;;;;;;11.80;9.83;;;6.90;99.90;;;;;;5073670;28;20270;-76
2023/04/25 06:04:12;;;;;;;9.97;8.80;;;7.00;99.90;;;;;;5073603;28;20292;-75
2023/04/25 06:06:38;;;;;;;11.43;9.90;;;6.90;99.90;;;;;;5073368;28;20198;-75
2023/04/25 06:09:05;;;;;;;10.53;8.60;;;6.90;99.90;;;;;;5073597;28;20193;-74
2023/04/25 06:11:32;;;;;;;10.90;9.73;;;6.90;99.90;;;;;;5073676;28;20205;-75
2023/04/25 06:14:00;;;;;;;11.20;9.37;;;7.00;99.90;;;;;;5073432;28;20197;-75
2023/04/25 06:16:26;;;;;;;11.90;9.80;;;7.00;99.90;;;;;;5073414;28;20201;-76
2023/04/25 06:18:53;;;;;;;12.63;10.20;;;6.90;99.90;;;;;;5073508;28;20201;-75
2023/04/25 06:21:20;;;;;;;11.90;9.60;;;6.80;99.90;;;;;;5073533;28;20207;-75
2023/04/25 06:23:46;;;;;;;12.23;10.50;;;6.80;99.90;;;;;;5073556;28;20219;-74
2023/04/25 06:26:13;;;;;;;10.93;9.57;;;6.90;99.90;;;;;;5073439;28;20282;-74
2023/04/25 06:28:40;;;;;;;11.50;9.93;;;7.00;99.90;;;;;;5073355;28;20203;-74
2023/04/25 06:31:08;;;;;;;12.03;9.73;;;7.00;99.90;;;;;;5073048;28;20232;-75
2023/04/25 06:33:34;;;;;;;10.83;9.73;;;6.90;99.90;;;;;;5073323;28;20338;-75
2023/04/25 06:36:01;;;;;;;10.07;8.77;;;7.00;99.90;;;;;;5072911;28;20282;-74
2023/04/25 06:38:27;;;;;;;11.77;9.67;;;6.90;99.90;;;;;;5072979;28;20715;-74
2023/04/25 06:40:54;;;;;;;11.37;9.63;;;7.00;99.90;;;;;;5073082;28;20246;-73
2023/04/25 06:43:21;;;;;;;10.37;9.27;;;7.00;99.90;;;;;;5073062;28;20243;-73
2023/04/25 06:45:47;;;;;;;10.30;9.20;;;7.00;99.90;;;;;;5072927;28;20702;-73
2023/04/25 06:48:16;;;;;;;10.37;9.10;;;6.90;99.90;;;;;;5072789;28;20258;-74
2023/04/25 06:50:42;;;;;;;11.07;9.67;;;7.00;99.90;;;;;;5072852;28;20236;-74
2023/04/25 06:53:11;;;;;;;9.77;8.70;;;7.20;99.90;;;;;;5072843;28;20196;-74
2023/04/25 06:55:37;;;;;;;10.87;8.30;;;7.20;99.90;;;;;;5072984;28;20193;-73
2023/04/25 06:58:04;;;;;;;10.37;8.93;;;7.20;99.90;;;;;;5072966;28;20197;-74
2023/04/25 07:00:31;;;;;;;9.70;8.70;;;7.20;99.90;;;;;;5072683;28;20224;-74
2023/04/25 07:02:58;;;;;;;8.43;7.13;;;7.00;99.90;;;;;;5072481;28;20200;-76
2023/04/25 07:05:26;;;;;;;8.50;7.70;;;6.80;99.90;;;;;;5073032;28;20240;-76
2023/04/25 07:07:53;;;;;;;11.40;8.83;;;6.40;99.90;;;;;;5073069;28;20600;-76
2023/04/25 07:10:21;;;;;;;9.53;8.20;;;6.30;99.90;;;;;;5072623;28;20271;-76
2023/04/25 07:12:47;;;;;;;9.97;8.20;;;6.20;99.90;;;;;;5072620;28;20255;-75
2023/04/25 07:15:14;;;;;;;9.70;8.47;;;6.20;99.90;;;;;;5072601;28;20273;-74
2023/04/25 07:17:41;;;;;;;10.67;9.07;;;6.30;99.90;;;;;;5072739;28;20223;-75
2023/04/25 07:20:09;;;;;;;10.77;9.67;;;6.40;99.90;;;;;;5072690;28;20197;-74
2023/04/25 07:22:37;;;;;;;10.27;9.27;;;6.40;99.90;;;;;;5072566;28;20283;-75
2023/04/25 07:25:04;;;;;;;11.10;9.37;;;6.50;99.90;;;;;;5072641;28;20254;-75
2023/04/25 07:27:30;;;;;;;10.93;9.13;;;6.40;99.90;;;;;;5072436;28;20193;-76
2023/04/25 07:29:57;;;;;;;11.27;9.03;;;6.50;99.90;;;;;;5072410;28;20626;-75
2023/04/25 07:32:24;;;;;;;11.17;9.30;;;6.50;99.90;;;;;;5072874;28;20200;-75
2023/04/25 07:34:51;;;;;;;11.73;9.87;;;6.60;99.90;;;;;;5072381;28;20772;-75
2023/04/25 07:37:18;;;;;;;13.10;10.00;;;6.70;99.90;;;;;;5074068;28;20197;-76
2023/04/25 07:39:46;;;;;;;10.87;8.43;;;6.80;99.90;;;;;;5073614;28;20232;-75
2023/04/25 07:42:13;;;;;;;11.93;8.80;;;6.80;99.90;;;;;;5072347;28;20197;-76
2023/04/25 07:44:40;;;;;;;9.77;8.73;;;7.00;99.90;;;;;;5072618;28;20255;-76
2023/04/25 07:47:07;;;;;;;9.80;8.43;;;7.10;99.90;;;;;;5072755;28;20376;-76
2023/04/25 07:49:35;;;;;;;9.47;8.47;;;7.30;99.90;;;;;;5072228;28;20197;-76
2023/04/25 07:52:02;;;;;;;8.07;7.27;;;7.60;99.90;;;;;;5072242;28;20197;-76
2023/04/25 07:54:28;;;;;;;9.90;7.50;;;7.70;99.90;;;;;;5072292;28;20243;-76
2023/04/25 07:56:56;;;;;;;7.60;6.80;;;7.70;99.90;;;;;;5072044;28;20197;-77
2023/04/25 07:59:23;;;;;;;8.50;7.43;;;7.70;99.90;;;;;;5072385;28;20262;-76
2023/04/25 08:01:50;;;;;;;8.57;7.60;;;7.60;99.90;;;;;;5072255;28;20201;-76
2023/04/25 08:04:17;;;;;;;8.30;7.40;;;7.70;99.90;;;;;;5072237;28;20273;-76
2023/04/25 08:06:44;;;;;;;8.07;7.27;;;7.70;99.90;;;;;;5072214;28;20201;-76
2023/04/25 08:09:10;;;;;;;9.57;7.67;;;8.00;99.90;;;;;;5072010;28;20197;-75
2023/04/25 08:11:37;;;;;;;10.23;7.60;;;8.20;99.90;;;;;;5072418;28;20230;-76
2023/04/25 08:14:06;;;;;;;8.67;6.90;;;8.20;99.90;;;;;;5072235;28;20197;-78
2023/04/25 08:16:33;;;;;;;8.20;7.40;;;8.10;99.90;;;;;;5075520;28;20253;-77
2023/04/25 08:19:00;;;;;;;9.77;7.70;;;8.00;99.90;;;;;;5075554;28;20201;-78
2023/04/25 08:21:27;;;;;;;8.00;7.20;;;8.00;99.90;;;;;;5075433;28;20710;-76
2023/04/25 08:23:54;;;;;;;9.17;7.07;;;8.20;99.90;;;;;;5075357;28;20197;-77
2023/04/25 08:26:21;;;;;;;11.67;7.73;;;8.40;99.90;;;;;;5075648;28;20270;-76
2023/04/25 08:28:47;;;;;;;8.30;6.93;;;8.50;99.90;;;;;;5075461;28;20207;-76
2023/04/25 08:31:15;;;;;;;8.10;6.83;;;8.70;99.90;;;;;;5075435;28;20228;-74
2023/04/25 08:33:42;;;;;;;10.80;7.17;;;8.60;99.90;;;;;;5075140;28;20644;-75
2023/04/25 08:36:09;;;;;;;7.27;6.40;;;8.80;99.90;;;;;;5075321;28;20278;-75
2023/04/25 08:38:36;;;;;;;9.27;7.30;;;8.70;99.90;;;;;;5074964;28;20197;-74
2023/04/25 08:41:03;;;;;;;8.67;7.43;;;8.70;99.90;;;;;;5075299;28;20197;-75
2023/04/25 08:43:30;;;;;;;9.73;8.20;;;9.00;99.90;;;;;;5075244;28;20201;-76
2023/04/25 08:46:00;;;;;;;8.73;7.83;;;9.50;99.90;;;;;;5075203;28;20254;-75
2023/04/25 08:48:29;;;;;;;10.90;8.00;;;10.30;99.90;;;;;;5075061;28;20200;-76
2023/04/25 08:50:58;;;;;;;11.17;6.87;;;10.60;99.90;;;;;;5074810;28;20229;-76
2023/04/25 08:53:27;;;;;;;8.67;6.70;;;10.10;99.90;;;;;;5075163;28;20283;-75
2023/04/25 08:55:55;;;;;;;6.93;6.33;;;9.80;99.90;;;;;;5075094;28;20201;-75
2023/04/25 08:58:22;;;;;;;6.73;6.03;;;9.50;99.90;;;;;;5074982;28;20255;-76
2023/04/25 09:00:49;;;;;;;6.27;5.20;;;9.60;99.90;;;;;;5074864;28;20197;-76
2023/04/25 09:03:16;;;;;;;9.40;5.87;;;10.20;99.90;;;;;;5075034;28;20287;-76
2023/04/25 09:05:45;;;;;;;8.10;5.57;;;10.80;99.90;;;;;;5074937;28;20193;-76
2023/04/25 09:08:12;;;;;;;9.40;6.60;;;11.30;99.90;;;;;;5074801;28;20240;-76
2023/04/25 09:10:39;;;;;;;9.63;7.00;;;10.70;99.90;;;;;;5074622;28;20256;-75
2023/04/25 09:13:08;;;;;;;8.00;7.07;;;10.50;99.90;;;;;;5074793;28;20193;-75
2023/04/25 09:15:48;;;;;;;8.97;6.90;;;10.90;99.90;;;;;;5074663;28;20201;-75
2023/04/25 09:18:15;;;;;;;6.90;6.17;;;10.80;99.90;;;;;;5074470;28;20552;-76
2023/04/25 09:20:44;;;;;;;6.87;5.93;;;10.50;99.90;;;;;;5074646;28;20208;-76
2023/04/25 09:23:11;;;;;;;6.93;5.50;;;10.60;99.90;;;;;;5074586;28;20201;-75
2023/04/25 09:25:39;;;;;;;8.20;6.33;;;10.90;99.90;;;;;;5074120;28;20446;-77
2023/04/25 09:28:07;;;;;;;8.23;6.47;;;11.70;99.90;;;;;;5074352;28;20197;-75
2023/04/25 09:30:35;;;;;;;7.43;6.43;;;11.90;99.90;;;;;;5074111;28;20217;-75
2023/04/25 09:33:07;;;;;;;6.97;5.90;;;12.00;99.90;;;;;;5074300;28;20193;-76
2023/04/25 09:35:38;;;;;;;6.43;5.83;;;11.70;99.90;;;;;;5074057;28;20232;-75
2023/04/25 09:38:11;;;;;;;6.53;5.70;;;12.00;99.90;;;;;;5074254;28;20240;-75
2023/04/25 09:40:41;;;;;;;5.93;5.33;;;12.20;99.90;;;;;;5073920;28;20740;-75
2023/04/25 09:43:11;;;;;;;7.70;6.90;;;12.20;99.90;;;;;;5073803;28;20208;-75
2023/04/25 09:45:45;;;;;;;9.90;6.20;;;12.10;99.90;;;;;;5074057;28;20200;-76
2023/04/25 09:48:12;;;;;;;8.27;6.00;;;12.00;99.90;;;;;;5073713;28;20656;-76
2023/04/25 09:50:40;;;;;;;9.27;6.43;;;11.40;99.90;;;;;;5073689;28;20217;-75
2023/04/25 09:53:06;;;;;;;7.17;5.90;;;11.40;99.90;;;;;;5073719;28;20284;-75
2023/04/25 09:55:35;;;;;;;6.40;5.80;;;12.10;99.90;;;;;;5073510;28;20201;-75
2023/04/25 09:58:05;;;;;;;5.83;5.00;;;12.40;99.90;;;;;;5073774;28;20274;-76
2023/04/25 10:00:33;;;;;;;7.30;5.20;;;11.80;99.90;;;;;;5073647;28;20223;-76
2023/04/25 10:03:03;;;;;;;6.03;5.07;;;11.80;99.90;;;;;;5073561;28;20205;-75
2023/04/25 10:05:31;;;;;;;5.70;5.00;;;12.20;99.90;;;;;;5073662;28;20203;-75
2023/04/25 10:07:59;;;;;;;8.80;5.53;;;12.50;99.90;;;;;;5073457;28;20211;-76
2023/04/25 10:10:27;;;;;;;7.73;5.80;;;13.20;99.90;;;;;;5073508;28;20197;-73
2023/04/25 10:12:56;;;;;;;8.17;5.50;;;12.40;99.90;;;;;;5073480;28;20201;-75
2023/04/25 10:15:22;;;;;;;5.80;4.10;;;11.90;99.90;;;;;;5073467;28;20231;-76
2023/04/25 10:17:51;;;;;;;5.50;4.30;;;12.50;99.90;;;;;;5073334;28;20201;-75
2023/04/25 10:20:18;;;;;;;4.57;4.17;;;12.70;99.90;;;;;;5073233;28;20319;-75
2023/04/25 10:22:47;;;;;;;7.18;4.43;;;13.10;99.90;;;;;;5073151;28;20204;-75
2023/04/25 10:25:15;;;;;;;3.83;3.30;;;13.60;99.90;;;;;;5073020;28;20656;-75
2023/04/25 10:27:42;;;;;;;5.23;3.77;;;13.30;99.90;;;;;;5073270;28;20228;-75
2023/04/25 10:30:14;;;;;;;6.37;4.07;;;12.80;99.90;;;;;;5073202;28;20224;-75
2023/04/25 10:32:42;;;;;;;5.70;4.07;;;13.10;99.90;;;;;;5073245;28;20260;-75
2023/04/25 10:35:15;;;;;;;5.03;3.58;;;13.90;99.90;;;;;;5072791;28;20772;-75
2023/04/25 10:38:04;;;;;;;5.93;4.45;;;13.90;98.70;;;;;;5072342;28;20197;-75
2023/04/25 10:40:31;;;;;;;4.17;3.30;;;12.90;98.90;;;;;;5073036;28;20193;-75
2023/04/25 10:43:32;;;;;;;5.93;3.43;;;13.00;98.00;;;;;;5073062;28;20287;-75
2023/04/25 10:46:02;;;;;;;4.83;3.83;;;14.20;98.10;;;;;;5072887;28;20281;-76
2023/04/25 10:48:29;;;;;;;4.30;3.90;;;13.40;98.00;;;;;;5072839;28;20284;-75
2023/04/25 10:51:08;;;;;;;4.30;3.90;;;13.10;98.70;;;;;;5079519;28;20217;-75
2023/04/25 10:53:35;;;;;;;7.17;4.10;;;13.00;99.90;;;;;;5073098;28;20200;-76
2023/04/25 10:56:10;;;;;;;5.23;3.57;;;13.50;99.40;;;;;;5073156;28;20247;-76
2023/04/25 10:58:37;;;;;;;4.27;3.87;;;13.00;98.60;;;;;;5072833;28;20663;-75
2023/04/25 11:01:05;;;;;;;3.83;3.33;;;13.20;97.80;;;;;;5072806;28;20213;-75
2023/04/25 11:03:31;;;;;;;4.57;3.23;;;13.00;96.30;;;;;;5072955;28;20342;-74
2023/04/25 11:06:00;;;;;;;6.03;3.73;;;12.60;96.80;;;;;;5072708;28;20205;-75
2023/04/25 11:08:46;;;;;;;6.23;3.70;;;12.90;96.90;;;;;;5072762;28;20197;-74
2023/04/25 11:11:12;;;;;;;4.87;3.60;;;12.60;97.50;;;;;;5072838;28;20212;-76
2023/04/25 11:13:39;;;;;;;5.30;4.00;;;11.70;98.70;;;;;;5072849;28;20201;-75
2023/04/25 11:16:09;;;;;;;5.73;3.80;;;11.50;99.30;;;;;;5072784;28;20197;-75
2023/04/25 11:18:38;;;;;;;5.03;4.10;;;11.60;99.80;;;;;;5072566;28;20201;-74
2023/04/25 11:21:04;;;;;;;4.97;4.47;;;11.90;99.50;;;;;;5072633;28;20255;-75
2023/04/25 11:23:31;;;;;;;7.33;4.57;;;11.60;99.70;;;;;;5072701;28;20250;-74
2023/04/25 11:26:00;;;;;;;7.97;6.10;;;11.50;99.90;;;;;;5072415;28;20684;-75
2023/04/25 11:28:27;;;;;;;20.13;18.17;;;11.40;99.90;;;;;;5072637;28;20201;-75
2023/04/25 11:30:54;;;;;;;5.30;3.97;;;11.90;99.90;;;;;;5072385;28;20197;-75
2023/04/25 11:33:26;;;;;;;15.73;12.37;;;12.60;99.90;;;;;;5072498;28;20228;-75
2023/04/25 11:35:55;;;;;;;8.50;3.87;;;12.80;99.60;;;;;;5072379;28;20232;-74
2023/04/25 11:38:23;;;;;;;6.00;4.80;;;13.00;99.40;;;;;;5072587;28;20194;-75
2023/04/25 11:40:51;;;;;;;6.83;4.30;;;12.90;99.10;;;;;;5072468;28;20205;-74
2023/04/25 11:43:20;;;;;;;7.77;4.27;;;12.80;98.70;;;;;;5072143;28;20193;-75
2023/04/25 11:45:48;;;;;;;5.50;3.83;;;12.60;98.80;;;;;;5072862;28;20579;-75
2023/04/25 11:48:14;;;;;;;5.07;3.77;;;12.90;99.20;;;;;;5072574;28;20197;-75
2023/04/25 11:50:42;;;;;;;4.97;3.97;;;12.30;98.80;;;;;;5076241;28;20201;-75
2023/04/25 11:53:10;;;;;;;5.37;3.50;;;12.00;99.70;;;;;;5076099;28;20235;-74
2023/04/25 11:55:37;;;;;;;3.80;3.00;;;11.80;98.60;;;;;;5076109;28;20243;-75
2023/04/25 11:58:05;;;;;;;5.13;3.10;;;12.10;98.40;;;;;;5075978;28;20212;-73
2023/04/25 12:00:32;;;;;;;4.83;3.30;;;11.70;98.60;;;;;;5075883;28;20201;-75
2023/04/25 12:02:59;;;;;;;4.90;3.47;;;11.60;99.00;;;;;;5075877;28;20726;-75
2023/04/25 12:05:27;;;;;;;4.17;3.50;;;11.40;99.70;;;;;;5075966;28;20300;-74
2023/04/25 12:07:55;;;;;;;6.87;3.47;;;11.50;99.90;;;;;;5075908;28;20653;-75
2023/04/25 12:10:22;;;;;;;4.53;3.53;;;11.40;99.90;;;;;;5075601;28;20655;-75
2023/04/25 12:12:49;;;;;;;5.00;3.37;;;11.80;99.90;;;;;;5075607;28;20222;-74
2023/04/25 12:15:19;;;;;;;4.40;3.50;;;11.80;99.90;;;;;;5075573;28;20201;-75
2023/04/25 12:17:46;;;;;;;5.10;3.10;;;12.20;99.80;;;;;;5075522;28;20730;-75
2023/04/25 12:20:15;;;;;;;4.77;3.50;;;12.80;99.60;;;;;;5075722;28;20243;-75
2023/04/25 12:22:44;;;;;;;7.57;3.67;;;12.40;99.80;;;;;;5075654;28;20724;-75
2023/04/25 12:25:13;;;;;;;5.53;3.40;;;12.20;99.90;;;;;;5075984;28;20204;-75
2023/04/25 12:27:41;;;;;;;4.03;3.10;;;12.00;99.90;;;;;;5075390;28;20207;-74
2023/04/25 12:30:10;;;;;;;8.47;6.07;;;11.70;99.90;;;;;;5075555;28;20290;-77
2023/04/25 12:32:37;;;;;;;4.13;3.73;;;11.60;99.90;;;;;;5075348;28;20255;-75
2023/04/25 12:35:04;;;;;;;4.83;4.33;;;11.60;99.90;;;;;;5075226;28;20314;-75
2023/04/25 12:37:31;;;;;;;4.63;3.80;;;11.80;99.90;;;;;;5075240;28;20197;-74
2023/04/25 12:39:57;;;;;;;5.60;4.20;;;11.80;99.90;;;;;;5075221;28;20755;-74
2023/04/25 12:42:25;;;;;;;6.47;3.77;;;11.60;99.90;;;;;;5075258;28;20197;-74
2023/04/25 12:44:52;;;;;;;4.33;3.93;;;11.20;99.90;;;;;;5075438;28;20259;-74
2023/04/25 12:47:19;;;;;;;5.17;3.70;;;11.00;99.90;;;;;;5075238;28;20201;-74
2023/04/25 12:49:45;;;;;;;5.77;3.80;;;10.70;99.90;;;;;;5074859;28;20649;-76